Challenge, California
Current Conditions -  °F | °C
As of 7:11 AM on Friday 19 Dec 2014 (Local Time) from KOVE Reporting Station
Light Rain Light Rain  
Wind Chill: 51°   Ceiling: 2800
Heat Index: 51°   Visibility: 9mi
Dew Point: 48°   Wind: 9mph
Humidity: 89%   Direction: 100°E
Pressure: 30.13"   Gusts: NA
Location:  39.49°N, 121.22°W
Report Text: KOVE 191511Z AUTO 10008KT 9SM -RA BKN028 OVC036 11/09 A3013 RMK AO2 P0001 T01060089
Loading
Personal Weather Stations






























Interactive Weather Map New forecast layout! Learn more

10-Day Weather Forecast

Advertisements
Track Severe Weather on mobile